DEELH EDLI-EDLI

Flight info

Callsign DEELH
Flight time 0h 13m
Altitude 4000
Route WRB1W
Aircraft BT36/L-BDFGLORY/S

Departure

Time 2026-05-04 20:07
Airport Bielefeld Airport (EDLI)

Arrival

Time 2026-05-04 20:20
Airport Bielefeld Airport (EDLI)
Time Latitude Longitude Altitude Speed Heading
2026-05-04 19:57 51.42248 9.35565 1822 ft 137 kts 278°
2026-05-04 19:58 51.42351 9.34035 2133 ft 139 kts 277°
2026-05-04 19:58 51.42438 9.32500 2422 ft 140 kts 277°
2026-05-04 19:58 51.42524 9.30937 2705 ft 141 kts 277°
2026-05-04 19:58 51.42609 9.29403 3040 ft 139 kts 276°
2026-05-04 19:59 51.42687 9.27851 3419 ft 138 kts 275°
2026-05-04 19:59 51.42762 9.26334 3788 ft 136 kts 274°
2026-05-04 19:59 51.42836 9.24839 4163 ft 134 kts 274°
2026-05-04 19:59 51.43121 9.23442 4536 ft 135 kts 306°
2026-05-04 20:00 51.43865 9.22504 4913 ft 136 kts 319°
2026-05-04 20:00 51.44622 9.21595 5283 ft 136 kts 318°
2026-05-04 20:00 51.45387 9.20686 5668 ft 137 kts 318°
2026-05-04 20:00 51.46163 9.19771 6040 ft 139 kts 317°
2026-05-04 20:01 51.46941 9.18852 6420 ft 139 kts 317°
2026-05-04 20:01 51.47714 9.17935 6777 ft 140 kts 316°
2026-05-04 20:01 51.48519 9.16979 6986 ft 154 kts 317°
2026-05-04 20:01 51.49434 9.15895 7002 ft 171 kts 318°
2026-05-04 20:02 51.50424 9.14733 7003 ft 180 kts 319°
2026-05-04 20:02 51.51449 9.13516 7002 ft 185 kts 318°
2026-05-04 20:02 51.52492 9.12282 7001 ft 187 kts 319°
2026-05-04 20:02 51.53547 9.11025 7000 ft 190 kts 319°
2026-05-04 20:03 51.54610 9.09766 6999 ft 190 kts 319°
2026-05-04 20:03 51.55671 9.08508 6999 ft 190 kts 319°
2026-05-04 20:03 51.56733 9.07245 6998 ft 190 kts 319°
2026-05-04 20:03 51.57788 9.05972 6999 ft 189 kts 315°
2026-05-04 20:04 51.58519 9.04326 6995 ft 182 kts 292°
2026-05-04 20:04 51.59074 9.02490 6995 ft 183 kts 293°
2026-05-04 20:04 51.59712 9.00718 6996 ft 183 kts 296°
2026-05-04 20:04 51.60373 8.98973 6997 ft 183 kts 296°
2026-05-04 20:05 51.61021 8.97217 6997 ft 183 kts 296°
2026-05-04 20:05 51.61670 8.95458 6997 ft 183 kts 296°
2026-05-04 20:05 51.62316 8.93704 6997 ft 182 kts 296°
2026-05-04 20:05 51.62958 8.91961 6997 ft 181 kts 296°
2026-05-04 20:06 51.63605 8.90207 7000 ft 182 kts 296°
2026-05-04 20:06 51.64247 8.88458 6999 ft 181 kts 296°
2026-05-04 20:06 51.64887 8.86719 6998 ft 180 kts 296°
2026-05-04 20:06 51.65525 8.84979 6999 ft 181 kts 296°
2026-05-04 20:07 51.66166 8.83234 6998 ft 181 kts 296°
2026-05-04 20:07 51.66806 8.81485 6998 ft 181 kts 296°
2026-05-04 20:07 51.67449 8.79734 6999 ft 182 kts 296°
2026-05-04 20:07 51.68092 8.77978 6999 ft 182 kts 296°
2026-05-04 20:08 51.68735 8.76223 6999 ft 182 kts 296°
2026-05-04 20:08 51.69375 8.74468 6999 ft 181 kts 296°
2026-05-04 20:08 51.70015 8.72714 6998 ft 182 kts 296°
2026-05-04 20:08 51.70656 8.70963 7005 ft 181 kts 296°
2026-05-04 20:09 51.71295 8.69209 6997 ft 181 kts 296°
2026-05-04 20:09 51.72152 8.67706 6989 ft 189 kts 326°
2026-05-04 20:09 51.73418 8.67166 6990 ft 194 kts 351°
2026-05-04 20:09 51.74760 8.66924 6996 ft 194 kts 350°
2026-05-04 20:10 51.76090 8.66596 6993 ft 193 kts 348°
2026-05-04 20:10 51.77416 8.66221 6998 ft 193 kts 347°
2026-05-04 20:10 51.78743 8.65846 6985 ft 194 kts 347°
2026-05-04 20:10 51.80089 8.65470 6702 ft 198 kts 348°
2026-05-04 20:11 51.81457 8.65093 6339 ft 201 kts 347°
2026-05-04 20:11 51.82841 8.64705 5956 ft 202 kts 347°
2026-05-04 20:11 51.84225 8.64317 5576 ft 202 kts 347°
2026-05-04 20:11 51.85603 8.63931 5199 ft 201 kts 347°
2026-05-04 20:12 51.86975 8.63547 4831 ft 200 kts 348°
2026-05-04 20:12 51.88338 8.63166 4440 ft 198 kts 348°
2026-05-04 20:12 51.89694 8.62787 4048 ft 197 kts 348°
2026-05-04 20:12 51.91041 8.62407 3683 ft 196 kts 348°
2026-05-04 20:13 51.92373 8.62033 3309 ft 193 kts 348°
2026-05-04 20:13 51.93681 8.61575 2926 ft 191 kts 338°
2026-05-04 20:13 51.94781 8.60426 2543 ft 188 kts 315°
2026-05-04 20:13 51.95528 8.58708 2161 ft 187 kts 294°
2026-05-04 20:14 51.95946 8.56870 1484 ft 170 kts 289°
2026-05-04 20:14 51.96366 8.54997 525 ft 177 kts 289°
2026-05-04 20:14 51.96761 8.53187 697 ft 166 kts 288°
2026-05-04 20:14 51.97140 8.51469 944 ft 159 kts 287°
2026-05-04 20:15 51.97053 8.49794 1121 ft 146 kts 238°
2026-05-04 20:15 51.96280 8.48934 1362 ft 133 kts 199°
2026-05-04 20:15 51.95385 8.48416 1376 ft 140 kts 197°
2026-05-04 20:15 51.94440 8.48607 1376 ft 142 kts 146°
2026-05-04 20:16 51.93899 8.49899 1382 ft 141 kts 113°
2026-05-04 20:16 51.93510 8.51364 1386 ft 141 kts 114°
2026-05-04 20:16 51.93121 8.52820 1388 ft 141 kts 114°
2026-05-04 20:16 51.92731 8.54281 1388 ft 141 kts 114°
2026-05-04 20:17 51.92344 8.55739 1390 ft 141 kts 113°
2026-05-04 20:17 51.91956 8.57198 1389 ft 141 kts 114°
2026-05-04 20:17 51.91668 8.58709 1384 ft 142 kts 88°
2026-05-04 20:17 51.92037 8.60126 1381 ft 137 kts 48°
2026-05-04 20:18 51.92816 8.60771 1377 ft 122 kts 10°
2026-05-04 20:18 51.93624 8.60969 1376 ft 114 kts
2026-05-04 20:18 51.94411 8.61083 1310 ft 115 kts 350°
2026-05-04 20:18 51.95083 8.60414 1175 ft 114 kts 308°
2026-05-04 20:19 51.95381 8.59345 1036 ft 98 kts 287°
2026-05-04 20:19 51.95608 8.58324 911 ft 94 kts 289°
2026-05-04 20:19 51.95830 8.57340 789 ft 92 kts 289°
2026-05-04 20:19 51.96042 8.56399 667 ft 85 kts 288°
2026-05-04 20:20 51.96239 8.55527 548 ft 80 kts 290°
2026-05-04 20:20 51.96420 8.54716 458 ft 66 kts 288°
2026-05-04 20:20 51.96550 8.54144 455 ft 44 kts 290°
2026-05-04 20:20 51.96648 8.53962 456 ft 0 kts 36°
2026-05-04 20:21 51.96624 8.54014 456 ft 2 kts 42°
2026-05-04 20:21 51.96594 8.54177 456 ft 27 kts 112°
2026-05-04 20:21 51.96504 8.54743 456 ft 23 kts 73°
2026-05-04 20:22 51.96537 8.54953 456 ft 5 kts 143°
2026-05-04 20:22 51.96535 8.54954 456 ft 0 kts 163°